Time;durP1;ratioP1;P1;durP2;ratioP2;P2;SDS_P1;SDS_P2;PMS_P1;PMS_P2;Temp;Humidity;BMP_temperature;BMP_pressure;BME280_temperature;BME280_humidity;BME280_pressure;Samples;Min_cycle;Max_cycle;Signal;HPM_P1;HPM_P2
2021/04/11 00:01:30;;;;;;;8.43;6.10;;;10.40;99.90;;;;;;4993929;28;20183;-80
2021/04/11 00:03:56;;;;;;;6.40;5.75;;;10.40;99.90;;;;;;4993917;28;20198;-80
2021/04/11 00:06:22;;;;;;;6.82;5.90;;;10.40;99.90;;;;;;4993675;28;20298;-80
2021/04/11 00:08:48;;;;;;;7.90;5.90;;;10.40;99.90;;;;;;4992834;28;20271;-80
2021/04/11 00:11:14;;;;;;;8.13;6.00;;;10.50;99.90;;;;;;4993877;28;20704;-80
2021/04/11 00:13:40;;;;;;;10.13;5.40;;;10.40;99.90;;;;;;4994412;28;20258;-80
2021/04/11 00:16:07;;;;;;;7.10;6.40;;;10.40;99.90;;;;;;4997404;28;20449;-79
2021/04/11 00:18:33;;;;;;;7.13;6.43;;;10.40;99.90;;;;;;4996497;28;20194;-79
2021/04/11 00:21:02;;;;;;;7.25;5.70;;;10.30;99.90;;;;;;4997829;28;20191;-80
2021/04/11 00:23:28;;;;;;;6.30;5.70;;;10.30;99.90;;;;;;4997869;28;20175;-80
2021/04/11 00:25:53;;;;;;;9.47;5.40;;;10.40;99.90;;;;;;4997203;28;20204;-80
2021/04/11 00:28:20;;;;;;;5.43;4.73;;;10.40;99.90;;;;;;4997479;28;20533;-80
2021/04/11 00:30:46;;;;;;;7.88;5.18;;;10.30;99.90;;;;;;4963902;28;20430;-80
2021/04/11 00:33:36;;;;;;;5.38;4.88;;;10.20;99.90;;;;;;4997685;28;20191;-80
2021/04/11 00:36:10;;;;;;;5.25;4.85;;;10.30;99.90;;;;;;4997043;28;20616;-79
2021/04/11 00:38:36;;;;;;;6.35;4.70;;;10.30;99.90;;;;;;4997196;28;20183;-80
2021/04/11 00:41:17;;;;;;;5.97;4.72;;;10.30;99.90;;;;;;4997440;28;20179;-80
2021/04/11 00:43:43;;;;;;;5.03;4.57;;;10.20;99.90;;;;;;4996062;28;20198;-81
2021/04/11 00:46:30;;;;;;;6.40;4.55;;;10.30;99.90;;;;;;4979696;28;20343;-80
2021/04/11 00:48:56;;;;;;;5.50;5.00;;;10.20;99.90;;;;;;4997309;28;20180;-80
2021/04/11 00:51:27;;;;;;;5.20;4.70;;;10.30;99.90;;;;;;4997202;28;20772;-80
2021/04/11 00:54:01;;;;;;;5.40;4.78;;;10.30;99.90;;;;;;4995794;28;20553;-80
2021/04/11 00:56:28;;;;;;;5.70;4.68;;;10.30;99.90;;;;;;4996748;28;20214;-80
2021/04/11 00:58:54;;;;;;;5.15;4.65;;;10.30;99.90;;;;;;4997120;28;20199;-80
2021/04/11 01:01:20;;;;;;;6.37;4.50;;;10.30;99.90;;;;;;4997048;28;20187;-80
2021/04/11 01:03:48;;;;;;;5.25;4.75;;;10.30;99.90;;;;;;4995739;28;20661;-79
2021/04/11 01:06:18;;;;;;;4.93;4.40;;;10.30;99.90;;;;;;4995125;28;20302;-81
2021/04/11 01:08:45;;;;;;;5.13;4.00;;;10.30;99.90;;;;;;4997125;28;20164;-80
2021/04/11 01:11:18;;;;;;;3.95;3.55;;;10.30;99.90;;;;;;4997114;28;20230;-80
2021/04/11 01:13:50;;;;;;;6.40;5.05;;;10.40;99.90;;;;;;4996885;28;20187;-80
2021/04/11 01:16:17;;;;;;;7.95;3.83;;;10.40;99.90;;;;;;4996404;28;20638;-80
2021/04/11 01:18:43;;;;;;;4.72;4.30;;;10.40;99.90;;;;;;4996719;28;20199;-79
2021/04/11 01:21:36;;;;;;;5.57;4.15;;;10.40;99.90;;;;;;4996749;28;20236;-80
2021/04/11 01:24:12;;;;;;;5.03;4.63;;;10.40;99.90;;;;;;4986534;28;20246;-80
2021/04/11 01:26:40;;;;;;;5.05;4.55;;;10.40;99.90;;;;;;4996341;28;20191;-80
2021/04/11 01:29:08;;;;;;;5.43;4.93;;;10.30;99.90;;;;;;4998457;28;20229;-78
2021/04/11 01:31:34;;;;;;;5.45;4.95;;;10.30;99.90;;;;;;5001502;28;20180;-78
2021/04/11 01:34:00;;;;;;;5.07;4.57;;;10.40;99.90;;;;;;5000951;28;20218;-79
2021/04/11 01:36:29;;;;;;;5.03;4.53;;;10.30;99.90;;;;;;5002387;28;20290;-78
2021/04/11 01:38:58;;;;;;;5.05;4.43;;;10.30;99.90;;;;;;4996681;28;20211;-78
2021/04/11 01:41:35;;;;;;;4.97;4.00;;;10.30;99.90;;;;;;4995078;28;20186;-78
2021/04/11 01:44:03;;;;;;;5.82;5.00;;;10.30;99.90;;;;;;4996435;28;20577;-78
2021/04/11 01:46:30;;;;;;;5.40;4.13;;;10.30;99.90;;;;;;4994603;28;20699;-78
2021/04/11 01:48:56;;;;;;;5.32;4.70;;;10.30;99.90;;;;;;4996255;28;20223;-78
2021/04/11 01:51:27;;;;;;;4.63;4.22;;;10.30;99.90;;;;;;4995034;28;20192;-77
2021/04/11 01:53:53;;;;;;;5.95;4.55;;;10.30;99.90;;;;;;4994899;28;20217;-77
2021/04/11 01:56:20;;;;;;;5.95;4.30;;;10.30;99.90;;;;;;4995504;28;20306;-78
2021/04/11 01:58:46;;;;;;;5.65;4.25;;;10.20;99.90;;;;;;4995742;28;20298;-78
2021/04/11 02:01:20;;;;;;;6.25;4.55;;;10.20;99.90;;;;;;4994445;28;20274;-77
2021/04/11 02:04:10;;;;;;;5.40;4.90;;;10.20;99.90;;;;;;4995861;28;20175;-77
2021/04/11 02:06:43;;;;;;;5.80;4.78;;;10.20;99.90;;;;;;4994720;28;20588;-78
2021/04/11 02:09:15;;;;;;;5.00;4.50;;;10.20;99.90;;;;;;4994337;28;20233;-78
2021/04/11 02:11:41;;;;;;;6.28;4.78;;;10.20;99.90;;;;;;4995661;28;20254;-78
2021/04/11 02:14:09;;;;;;;4.93;4.38;;;10.20;99.90;;;;;;4995722;28;20667;-77
2021/04/11 02:16:35;;;;;;;5.43;4.88;;;10.20;99.90;;;;;;4995144;28;20203;-78
2021/04/11 02:19:05;;;;;;;4.03;3.73;;;10.10;99.90;;;;;;4995379;28;20253;-78
2021/04/11 02:21:32;;;;;;;4.90;4.40;;;10.10;99.90;;;;;;4995423;28;20172;-78
2021/04/11 02:23:58;;;;;;;4.28;3.80;;;10.10;99.90;;;;;;4995323;28;20621;-78
2021/04/11 02:26:24;;;;;;;4.70;3.87;;;10.10;99.90;;;;;;4994994;28;20254;-77
2021/04/11 02:28:50;;;;;;;8.25;6.85;;;10.10;99.90;;;;;;4995119;28;20803;-76
2021/04/11 02:31:18;;;;;;;18.20;14.90;;;10.00;99.90;;;;;;4995411;28;20188;-77
2021/04/11 02:33:55;;;;;;;24.77;18.35;;;9.70;99.90;;;;;;4995408;28;20205;-76
2021/04/11 02:36:32;;;;;;;30.05;21.30;;;9.40;99.90;;;;;;4992938;28;20544;-77
2021/04/11 02:38:58;;;;;;;26.98;20.10;;;9.10;99.90;;;;;;4995155;28;20252;-78
2021/04/11 02:41:26;;;;;;;28.20;20.30;;;8.80;99.90;;;;;;4994973;28;20258;-76
2021/04/11 02:43:53;;;;;;;31.58;22.10;;;8.90;99.90;;;;;;4995228;28;20407;-76
2021/04/11 02:46:19;;;;;;;28.88;21.23;;;8.70;99.90;;;;;;4994801;28;20551;-76
2021/04/11 02:48:47;;;;;;;27.40;20.85;;;8.60;99.90;;;;;;4995152;28;20188;-77
2021/04/11 02:51:13;;;;;;;27.50;21.15;;;8.60;99.90;;;;;;4994891;28;20182;-77
2021/04/11 02:53:40;;;;;;;24.58;19.45;;;8.40;99.90;;;;;;4994936;28;20266;-76
2021/04/11 02:56:06;;;;;;;25.85;20.20;;;8.30;99.90;;;;;;4994632;28;20200;-76
2021/04/11 02:58:32;;;;;;;19.40;15.23;;;8.20;99.90;;;;;;4994720;28;20629;-77
2021/04/11 03:01:05;;;;;;;25.77;20.10;;;7.90;99.90;;;;;;4994724;28;20175;-76
2021/04/11 03:03:32;;;;;;;23.90;17.42;;;8.00;99.90;;;;;;4994755;28;20586;-76
2021/04/11 03:06:03;;;;;;;22.48;16.50;;;7.80;99.90;;;;;;4994293;28;20199;-76
2021/04/11 03:08:33;;;;;;;22.65;17.65;;;7.80;99.90;;;;;;4994888;28;20167;-76
2021/04/11 03:11:10;;;;;;;20.77;16.48;;;7.60;99.90;;;;;;4993273;28;20179;-76
2021/04/11 03:13:36;;;;;;;22.10;16.77;;;7.60;99.90;;;;;;4994443;28;20276;-76
2021/04/11 03:16:02;;;;;;;24.52;17.90;;;7.50;99.90;;;;;;4994313;28;20202;-76
2021/04/11 03:18:29;;;;;;;23.45;16.17;;;7.60;99.90;;;;;;4994386;28;20172;-76
2021/04/11 03:20:57;;;;;;;22.15;17.67;;;7.40;99.90;;;;;;4994852;28;20183;-76
2021/04/11 03:23:23;;;;;;;23.85;17.00;;;7.40;99.90;;;;;;4994241;28;20168;-76
2021/04/11 03:25:56;;;;;;;22.25;16.50;;;7.30;99.90;;;;;;4994048;28;20203;-76
2021/04/11 03:28:32;;;;;;;23.92;17.85;;;7.20;99.90;;;;;;4994344;28;20708;-76
2021/04/11 03:31:15;;;;;;;20.15;16.42;;;7.10;99.90;;;;;;4994302;28;20173;-76
2021/04/11 03:33:46;;;;;;;23.23;16.45;;;7.00;99.90;;;;;;4994210;28;20161;-76
2021/04/11 03:36:15;;;;;;;21.95;15.63;;;6.90;99.90;;;;;;4993882;28;20203;-76
2021/04/11 03:38:41;;;;;;;24.08;16.77;;;6.90;99.90;;;;;;4994147;28;20496;-76
2021/04/11 03:41:07;;;;;;;28.40;17.67;;;6.90;99.90;;;;;;4994150;28;20187;-78
2021/04/11 03:43:53;;;;;;;21.85;13.93;;;6.90;99.90;;;;;;4993962;28;20262;-77
2021/04/11 03:46:56;;;;;;;23.17;15.48;;;6.70;99.90;;;;;;4993745;28;20205;-76
2021/04/11 03:49:54;;;;;;;21.48;14.27;;;6.70;99.90;;;;;;4993168;28;20179;-76
2021/04/11 03:52:33;;;;;;;15.80;11.20;;;6.70;99.90;;;;;;4993609;28;20651;-76
2021/04/11 03:55:03;;;;;;;17.17;13.05;;;6.50;99.90;;;;;;4993712;28;20516;-76
2021/04/11 03:57:37;;;;;;;13.70;11.48;;;6.50;99.90;;;;;;4993753;28;20230;-76
2021/04/11 04:00:12;;;;;;;17.30;12.43;;;6.40;99.90;;;;;;4993899;28;20720;-76
2021/04/11 04:02:41;;;;;;;13.35;10.20;;;6.40;99.90;;;;;;4993905;28;20518;-76
2021/04/11 04:05:13;;;;;;;16.98;12.05;;;6.30;99.90;;;;;;4992171;28;20194;-76
2021/04/11 04:08:01;;;;;;;16.60;11.50;;;6.40;99.90;;;;;;4992703;28;20206;-76
2021/04/11 04:11:04;;;;;;;17.85;12.00;;;6.30;99.90;;;;;;4992467;28;20179;-76
2021/04/11 04:13:48;;;;;;;15.20;10.70;;;6.30;99.90;;;;;;4993426;28;20193;-76
2021/04/11 04:16:48;;;;;;;14.15;9.20;;;6.20;99.90;;;;;;4992395;28;20234;-76
2021/04/11 04:19:33;;;;;;;9.85;7.05;;;6.20;99.90;;;;;;4992536;28;20214;-76
2021/04/11 04:22:16;;;;;;;7.93;6.38;;;6.00;99.90;;;;;;4992435;28;20279;-76
2021/04/11 04:25:18;;;;;;;11.00;8.35;;;6.00;99.90;;;;;;4992356;28;20195;-76
2021/04/11 04:28:30;;;;;;;9.48;7.07;;;6.00;99.90;;;;;;4992559;28;20178;-77
2021/04/11 04:31:31;;;;;;;10.45;7.90;;;6.00;99.90;;;;;;4992086;28;20201;-76
2021/04/11 04:34:22;;;;;;;9.95;7.63;;;5.80;99.90;;;;;;4993717;28;20199;-77
2021/04/11 04:37:16;;;;;;;11.40;8.60;;;5.70;99.90;;;;;;4992031;28;20256;-77
2021/04/11 04:39:59;;;;;;;10.75;8.90;;;5.80;99.90;;;;;;4993397;28;20200;-77
2021/04/11 04:42:44;;;;;;;12.23;9.27;;;5.90;99.90;;;;;;4993819;28;20172;-77
2021/04/11 04:45:23;;;;;;;13.50;9.77;;;5.80;99.90;;;;;;4992694;28;20195;-76
2021/04/11 04:48:13;;;;;;;11.15;8.20;;;5.80;99.90;;;;;;4993424;28;20154;-77
2021/04/11 04:51:06;;;;;;;9.55;6.38;;;5.70;99.90;;;;;;4992289;28;20172;-77
2021/04/11 04:53:43;;;;;;;10.18;8.45;;;5.40;99.90;;;;;;4993423;28;20176;-77
2021/04/11 04:56:16;;;;;;;12.50;7.63;;;5.40;99.90;;;;;;4993067;28;20249;-77
2021/04/11 04:58:45;;;;;;;9.85;7.43;;;5.30;99.90;;;;;;4992357;28;20168;-77
2021/04/11 05:01:22;;;;;;;9.30;6.80;;;5.30;99.90;;;;;;4994878;28;20731;-76
2021/04/11 05:03:51;;;;;;;7.70;5.75;;;5.20;99.90;;;;;;4996006;28;20163;-78
2021/04/11 05:06:26;;;;;;;10.98;7.13;;;5.10;99.90;;;;;;4996428;28;20226;-77
2021/04/11 05:09:06;;;;;;;9.30;7.57;;;5.00;99.90;;;;;;4996907;28;20159;-78
2021/04/11 05:11:42;;;;;;;8.57;7.22;;;5.00;99.90;;;;;;4996776;28;20164;-78
2021/04/11 05:14:11;;;;;;;10.70;8.60;;;4.90;99.90;;;;;;4996639;28;20323;-77
2021/04/11 05:16:47;;;;;;;10.63;8.27;;;4.90;99.90;;;;;;4996462;28;20276;-77
2021/04/11 05:19:50;;;;;;;11.50;8.50;;;4.90;99.90;;;;;;4996813;28;20214;-77
2021/04/11 05:22:22;;;;;;;12.90;8.75;;;4.70;99.90;;;;;;4996662;28;20607;-77
2021/04/11 05:24:53;;;;;;;11.23;9.10;;;4.70;99.90;;;;;;4996413;28;20206;-77
2021/04/11 05:27:45;;;;;;;9.95;7.95;;;4.70;99.90;;;;;;4996462;28;20199;-77
2021/04/11 05:30:23;;;;;;;7.80;6.53;;;4.60;99.90;;;;;;4986450;28;20190;-77
2021/04/11 05:32:49;;;;;;;11.60;9.13;;;4.50;99.90;;;;;;4996454;28;20519;-78
2021/04/11 05:35:15;;;;;;;16.92;11.73;;;4.50;99.90;;;;;;4996297;28;20191;-77
2021/04/11 05:38:02;;;;;;;18.10;12.33;;;4.40;99.90;;;;;;4996348;28;20245;-77
2021/04/11 05:40:33;;;;;;;19.10;11.45;;;4.50;99.90;;;;;;4995996;28;20469;-77
2021/04/11 05:43:07;;;;;;;17.80;11.63;;;4.50;99.90;;;;;;4996340;28;20156;-77
2021/04/11 05:45:37;;;;;;;16.52;9.15;;;4.50;99.90;;;;;;4996062;28;20199;-78
2021/04/11 05:48:30;;;;;;;18.65;13.50;;;4.40;99.90;;;;;;4996730;28;20172;-77
2021/04/11 05:51:15;;;;;;;22.58;14.48;;;4.40;99.90;;;;;;4996377;28;20183;-77
2021/04/11 05:54:04;;;;;;;19.58;11.75;;;4.40;99.90;;;;;;4996161;28;20626;-77
2021/04/11 05:56:39;;;;;;;20.45;14.40;;;4.30;99.90;;;;;;4995577;28;20196;-77
2021/04/11 05:59:21;;;;;;;22.20;14.07;;;4.30;99.90;;;;;;4995994;28;20207;-77
2021/04/11 06:01:58;;;;;;;17.80;11.15;;;4.20;99.90;;;;;;4993039;28;20192;-77
2021/04/11 06:04:27;;;;;;;16.55;11.57;;;4.10;99.90;;;;;;4995699;28;20183;-80
2021/04/11 06:07:03;;;;;;;18.90;13.95;;;4.10;99.90;;;;;;4994157;28;20218;-78
2021/04/11 06:09:44;;;;;;;23.30;13.23;;;4.10;99.90;;;;;;4995641;28;20217;-77
2021/04/11 06:12:37;;;;;;;14.32;8.00;;;4.10;99.90;;;;;;4994745;28;20230;-77
2021/04/11 06:15:25;;;;;;;20.80;12.68;;;4.00;99.90;;;;;;4995324;28;20203;-77
2021/04/11 06:17:53;;;;;;;26.02;15.25;;;4.00;99.90;;;;;;4995527;28;20648;-77
2021/04/11 06:20:19;;;;;;;18.55;11.40;;;4.00;99.90;;;;;;4995441;28;20244;-77
2021/04/11 06:23:14;;;;;;;25.27;15.60;;;4.00;99.90;;;;;;4995373;28;20172;-77
2021/04/11 06:25:43;;;;;;;22.80;15.98;;;4.10;99.90;;;;;;4995093;28;20194;-77
2021/04/11 06:28:27;;;;;;;19.88;12.10;;;4.00;99.90;;;;;;4995724;28;20254;-78
2021/04/11 06:30:57;;;;;;;12.95;9.43;;;4.00;99.90;;;;;;4995391;28;20179;-77
2021/04/11 06:33:32;;;;;;;20.90;13.95;;;3.90;99.90;;;;;;4994122;28;20183;-77
2021/04/11 06:36:06;;;;;;;20.05;13.45;;;3.90;99.90;;;;;;4994933;28;20544;-77
2021/04/11 06:38:46;;;;;;;18.60;12.65;;;4.00;99.90;;;;;;4995290;28;20159;-76
2021/04/11 06:41:35;;;;;;;18.17;12.00;;;4.00;99.90;;;;;;4995327;28;20210;-77
2021/04/11 06:44:04;;;;;;;20.23;12.23;;;4.10;99.90;;;;;;4995134;28;20184;-77
2021/04/11 06:46:57;;;;;;;18.20;11.90;;;4.00;99.90;;;;;;4994689;28;20191;-76
2021/04/11 06:49:54;;;;;;;16.48;11.73;;;4.10;99.90;;;;;;4994923;28;20172;-77
2021/04/11 06:52:32;;;;;;;13.23;9.10;;;4.10;99.90;;;;;;4994981;28;20179;-76
2021/04/11 06:55:16;;;;;;;11.85;8.25;;;4.00;99.90;;;;;;4993269;28;20179;-77
2021/04/11 06:57:58;;;;;;;14.65;10.32;;;4.00;99.90;;;;;;4994804;28;20183;-77
2021/04/11 07:00:59;;;;;;;14.77;9.88;;;3.90;99.90;;;;;;4993406;28;20261;-76
2021/04/11 07:03:55;;;;;;;10.15;7.88;;;3.90;99.90;;;;;;4992405;28;20194;-76
2021/04/11 07:06:47;;;;;;;16.75;10.38;;;3.80;99.90;;;;;;4994129;28;20277;-76
2021/04/11 07:09:50;;;;;;;12.77;7.63;;;3.90;99.90;;;;;;4994404;28;20592;-76
2021/04/11 07:12:52;;;;;;;14.32;9.00;;;3.90;99.90;;;;;;4993076;28;20187;-76
2021/04/11 07:15:36;;;;;;;8.57;6.47;;;3.90;99.90;;;;;;4994077;28;20173;-76
2021/04/11 07:18:39;;;;;;;7.90;5.93;;;3.80;99.90;;;;;;4994385;28;20173;-75
2021/04/11 07:21:29;;;;;;;11.50;7.18;;;3.90;99.90;;;;;;4994184;28;20190;-76
2021/04/11 07:24:16;;;;;;;4.35;3.40;;;3.90;99.90;;;;;;4993994;28;20176;-77
2021/04/11 07:26:59;;;;;;;7.10;5.97;;;3.80;99.90;;;;;;4993900;28;20195;-76
2021/04/11 07:29:52;;;;;;;10.70;7.53;;;3.90;99.90;;;;;;4994161;28;20596;-76
2021/04/11 07:32:44;;;;;;;6.80;4.78;;;3.90;99.90;;;;;;4994212;28;20209;-76
2021/04/11 07:35:38;;;;;;;6.90;4.75;;;3.80;99.90;;;;;;4993862;28;20607;-76
2021/04/11 07:38:13;;;;;;;7.40;5.25;;;3.80;99.90;;;;;;4991619;28;20188;-76
2021/04/11 07:41:00;;;;;;;9.90;5.85;;;3.80;99.90;;;;;;4990416;28;20216;-76
2021/04/11 07:43:26;;;;;;;6.03;3.83;;;3.90;99.90;;;;;;4973407;28;20175;-78
2021/04/11 07:46:16;;;;;;;10.80;6.90;;;3.80;99.90;;;;;;4974274;28;20188;-80
2021/04/11 07:49:10;;;;;;;5.22;4.13;;;3.80;99.90;;;;;;4974451;28;20257;-80
2021/04/11 07:51:56;;;;;;;8.60;5.40;;;3.80;99.90;;;;;;4973159;28;20659;-76
2021/04/11 07:54:56;;;;;;;11.35;5.40;;;3.80;99.90;;;;;;4974238;28;20227;-76
2021/04/11 07:57:56;;;;;;;8.65;6.28;;;3.80;99.90;;;;;;4974159;28;20196;-76
2021/04/11 08:00:47;;;;;;;9.52;6.38;;;3.80;99.90;;;;;;4956088;28;20220;-76
2021/04/11 08:03:44;;;;;;;9.45;5.75;;;3.90;99.90;;;;;;4988613;28;20195;-76
2021/04/11 08:06:32;;;;;;;8.45;5.57;;;3.80;99.90;;;;;;4980496;28;20262;-76
2021/04/11 08:09:12;;;;;;;9.15;7.13;;;3.80;99.90;;;;;;4974262;28;20184;-76
2021/04/11 08:12:22;;;;;;;8.00;6.65;;;3.70;99.90;;;;;;4980168;28;20212;-76
2021/04/11 08:15:14;;;;;;;8.60;6.10;;;3.70;99.90;;;;;;4988913;28;20546;-76
2021/04/11 08:18:04;;;;;;;11.27;6.95;;;3.80;99.90;;;;;;4992485;28;20187;-76
2021/04/11 08:21:00;;;;;;;6.47;5.75;;;3.80;99.90;;;;;;4992535;28;20202;-76
2021/04/11 08:24:03;;;;;;;7.05;5.10;;;3.60;99.90;;;;;;4993482;28;20178;-76
2021/04/11 08:26:57;;;;;;;6.80;4.50;;;3.70;99.90;;;;;;4991466;28;20725;-76
2021/04/11 08:29:50;;;;;;;9.18;5.13;;;3.60;99.90;;;;;;4991753;28;20198;-76
2021/04/11 08:32:40;;;;;;;9.10;4.78;;;3.70;99.90;;;;;;4982745;28;20574;-76
2021/04/11 08:35:29;;;;;;;5.75;4.75;;;3.60;99.90;;;;;;4991579;28;20178;-75
2021/04/11 08:38:43;;;;;;;6.88;4.30;;;3.60;99.90;;;;;;4996849;28;20303;-76
2021/04/11 08:41:20;;;;;;;6.40;4.43;;;3.50;99.90;;;;;;4956352;28;20201;-76
2021/04/11 08:44:14;;;;;;;5.90;4.05;;;3.60;99.90;;;;;;4977878;28;20179;-76
2021/04/11 08:47:02;;;;;;;5.90;3.40;;;3.60;99.90;;;;;;4979692;28;20205;-79
2021/04/11 08:49:46;;;;;;;3.47;3.15;;;3.50;99.90;;;;;;4996618;28;20180;-78
2021/04/11 08:52:52;;;;;;;5.45;4.75;;;3.70;99.90;;;;;;4990421;28;20546;-78
2021/04/11 08:55:29;;;;;;;6.60;3.90;;;3.60;99.90;;;;;;4994606;28;20654;-78
2021/04/11 08:58:05;;;;;;;5.07;4.57;;;3.70;99.90;;;;;;4994459;28;20570;-77
2021/04/11 09:00:47;;;;;;;9.77;7.30;;;3.80;99.90;;;;;;4996598;28;20280;-76
2021/04/11 09:03:31;;;;;;;7.57;5.32;;;3.60;99.90;;;;;;4995515;28;20209;-78
2021/04/11 09:06:02;;;;;;;5.57;4.60;;;3.70;99.90;;;;;;4996256;28;20198;-78
2021/04/11 09:09:09;;;;;;;7.30;4.50;;;3.70;99.90;;;;;;4996774;28;20165;-78
2021/04/11 09:12:03;;;;;;;6.20;5.30;;;3.70;99.90;;;;;;4992915;28;20207;-78
2021/04/11 09:15:10;;;;;;;6.03;4.60;;;3.90;99.90;;;;;;4995035;28;20182;-79
2021/04/11 09:17:43;;;;;;;6.55;4.97;;;3.90;99.90;;;;;;4974952;28;20529;-78
2021/04/11 09:20:52;;;;;;;7.20;5.38;;;3.90;99.90;;;;;;4992856;28;20215;-78
2021/04/11 09:23:32;;;;;;;6.97;5.22;;;3.90;99.90;;;;;;4977526;28;20208;-78
2021/04/11 09:26:21;;;;;;;4.53;3.92;;;3.90;99.90;;;;;;4981134;28;20286;-78
2021/04/11 09:29:00;;;;;;;7.13;5.85;;;4.00;99.90;;;;;;4976876;28;20219;-78
2021/04/11 09:31:51;;;;;;;5.50;4.53;;;4.00;99.90;;;;;;4975533;28;20226;-78
2021/04/11 09:34:59;;;;;;;4.30;3.83;;;4.00;99.90;;;;;;4978136;28;20202;-77
2021/04/11 09:37:43;;;;;;;10.52;3.85;;;3.90;99.90;;;;;;4976743;28;20243;-78
2021/04/11 09:40:40;;;;;;;4.20;3.80;;;4.10;99.90;;;;;;4976468;28;20657;-78
2021/04/11 09:43:24;;;;;;;3.60;3.25;;;4.20;99.90;;;;;;4976757;28;20208;-78
2021/04/11 09:46:11;;;;;;;2.95;2.55;;;4.10;99.90;;;;;;4974789;28;20665;-79
2021/04/11 09:49:11;;;;;;;2.92;2.60;;;4.10;99.90;;;;;;4976609;28;20192;-79
2021/04/11 09:51:51;;;;;;;3.42;3.13;;;3.90;99.90;;;;;;4976494;28;20259;-78
2021/04/11 09:54:44;;;;;;;3.53;3.22;;;3.80;99.90;;;;;;4976605;28;20215;-82
2021/04/11 09:57:28;;;;;;;2.97;2.55;;;3.90;99.90;;;;;;4975587;28;20650;-84
2021/04/11 10:00:15;;;;;;;2.80;2.60;;;3.90;99.90;;;;;;4976252;28;20243;-78
2021/04/11 10:03:19;;;;;;;2.53;2.33;;;3.90;99.90;;;;;;4976427;28;20196;-78
2021/04/11 10:05:52;;;;;;;2.53;2.33;;;4.00;99.90;;;;;;4975836;28;20233;-78
2021/04/11 10:08:55;;;;;;;3.25;2.95;;;3.80;99.90;;;;;;4976211;28;20180;-78
2021/04/11 10:11:38;;;;;;;4.05;2.90;;;3.80;99.90;;;;;;4976301;28;20660;-78
2021/04/11 10:14:29;;;;;;;3.78;3.40;;;3.90;99.90;;;;;;5007327;28;20185;-79
2021/04/11 10:17:08;;;;;;;3.20;2.90;;;4.00;99.90;;;;;;4976190;28;20659;-78
2021/04/11 10:19:56;;;;;;;3.67;3.35;;;4.00;99.90;;;;;;4976229;28;20645;-78
2021/04/11 10:22:44;;;;;;;4.75;4.10;;;4.10;99.90;;;;;;4975848;28;20187;-78
2021/04/11 10:25:25;;;;;;;4.15;3.58;;;4.10;99.90;;;;;;4975622;28;20176;-78
2021/04/11 10:28:10;;;;;;;4.20;3.80;;;4.00;99.90;;;;;;4976054;28;20255;-78
2021/04/11 10:30:36;;;;;;;6.50;5.85;;;4.10;99.90;;;;;;4975906;28;20176;-77
2021/04/11 10:33:33;;;;;;;5.45;4.90;;;4.10;99.90;;;;;;4974600;28;20278;-78
2021/04/11 10:36:11;;;;;;;8.68;7.57;;;4.00;99.90;;;;;;4976695;28;20216;-78
2021/04/11 10:38:42;;;;;;;12.30;9.50;;;4.20;99.90;;;;;;4975613;28;20664;-77
2021/04/11 10:41:52;;;;;;;12.40;8.20;;;4.20;99.90;;;;;;4975600;28;20613;-78
2021/04/11 10:44:24;;;;;;;5.80;5.30;;;4.20;99.90;;;;;;4979342;28;20192;-78
2021/04/11 10:47:35;;;;;;;7.80;6.00;;;4.30;99.90;;;;;;4975297;28;20199;-78
2021/04/11 10:50:24;;;;;;;4.10;3.70;;;4.30;99.90;;;;;;4973767;28;20188;-77
2021/04/11 10:53:07;;;;;;;4.20;3.80;;;4.30;99.90;;;;;;4975408;28;20172;-78
2021/04/11 10:56:08;;;;;;;7.35;4.70;;;4.40;99.90;;;;;;4975042;28;20196;-78
2021/04/11 10:59:12;;;;;;;4.85;4.40;;;4.40;99.90;;;;;;4974671;28;20545;-78
2021/04/11 11:01:46;;;;;;;5.38;4.88;;;4.40;99.90;;;;;;4975891;28;20522;-78
2021/04/11 11:04:21;;;;;;;6.00;5.47;;;4.40;99.90;;;;;;4975213;28;20206;-78
2021/04/11 11:07:39;;;;;;;8.52;6.88;;;4.30;99.90;;;;;;4973341;28;20261;-78
2021/04/11 11:10:11;;;;;;;9.55;8.07;;;4.30;99.90;;;;;;4992418;28;20183;-78
2021/04/11 11:12:58;;;;;;;10.05;9.05;;;4.50;99.90;;;;;;4977992;28;20215;-78
2021/04/11 11:15:57;;;;;;;12.00;10.70;;;4.50;99.90;;;;;;4974645;28;20188;-78
2021/04/11 11:18:57;;;;;;;9.70;7.93;;;4.50;99.90;;;;;;4974843;28;20315;-77
2021/04/11 11:21:38;;;;;;;7.10;6.40;;;4.40;99.90;;;;;;4974893;28;20247;-77
2021/04/11 11:24:57;;;;;;;7.00;5.75;;;4.30;99.90;;;;;;4974837;28;20540;-77
2021/04/11 11:27:47;;;;;;;11.50;5.95;;;4.20;99.90;;;;;;4992002;28;20200;-78
2021/04/11 11:30:34;;;;;;;4.82;4.43;;;4.20;99.90;;;;;;4981976;28;20261;-77
2021/04/11 11:33:16;;;;;;;5.32;4.82;;;4.20;99.90;;;;;;4990950;28;20183;-77
2021/04/11 11:36:05;;;;;;;4.78;4.28;;;4.30;99.90;;;;;;4972959;28;20199;-78
2021/04/11 11:38:49;;;;;;;3.88;3.58;;;4.30;99.90;;;;;;4974871;28;20264;-77
2021/04/11 11:41:36;;;;;;;2.97;2.67;;;4.20;99.90;;;;;;4974720;28;20209;-78
2021/04/11 11:44:12;;;;;;;3.60;3.30;;;4.20;99.90;;;;;;4974699;28;20327;-77
2021/04/11 11:47:06;;;;;;;2.85;2.65;;;4.20;99.90;;;;;;4974261;28;20551;-77
2021/04/11 11:49:41;;;;;;;3.45;3.15;;;4.10;99.90;;;;;;4974470;28;20172;-78
2021/04/11 11:52:38;;;;;;;2.70;2.50;;;4.30;99.90;;;;;;4973195;28;20180;-78
2021/04/11 11:55:08;;;;;;;5.47;3.78;;;4.30;99.90;;;;;;4972727;28;20249;-77
2021/04/11 11:57:43;;;;;;;4.05;3.70;;;4.30;99.90;;;;;;4973149;28;20192;-78
2021/04/11 12:00:23;;;;;;;3.95;3.42;;;4.40;99.90;;;;;;4974369;28;20196;-78
2021/04/11 12:03:11;;;;;;;4.40;4.00;;;4.30;99.90;;;;;;4973259;28;20263;-80
2021/04/11 12:06:05;;;;;;;6.15;5.57;;;4.40;99.90;;;;;;4973814;28;20215;-77
2021/04/11 12:09:08;;;;;;;5.15;4.68;;;4.40;99.90;;;;;;4966364;28;20206;-77
2021/04/11 12:11:49;;;;;;;5.35;4.85;;;4.50;99.90;;;;;;4974287;28;20175;-78
2021/04/11 12:14:56;;;;;;;6.78;6.18;;;4.60;99.90;;;;;;4974285;28;20168;-78
2021/04/11 12:17:40;;;;;;;7.50;6.63;;;4.70;99.90;;;;;;4973961;28;20196;-78
2021/04/11 12:20:26;;;;;;;6.20;5.60;;;4.80;99.90;;;;;;4973968;28;20211;-78
2021/04/11 12:23:25;;;;;;;6.88;5.88;;;4.70;99.90;;;;;;4972894;28;20597;-78
2021/04/11 12:26:06;;;;;;;7.30;6.60;;;4.80;99.90;;;;;;4972692;28;20679;-78
2021/04/11 12:28:32;;;;;;;7.25;6.55;;;4.80;99.90;;;;;;4974079;28;20191;-78
2021/04/11 12:31:10;;;;;;;7.13;6.47;;;4.90;99.90;;;;;;4974323;28;20221;-78
2021/04/11 12:34:00;;;;;;;5.90;5.40;;;5.10;99.90;;;;;;4974004;28;20617;-78
2021/04/11 12:36:39;;;;;;;5.97;4.90;;;5.30;99.90;;;;;;4972425;28;20661;-78
2021/04/11 12:39:18;;;;;;;4.90;4.50;;;5.40;99.90;;;;;;4974074;28;20548;-78
2021/04/11 12:42:19;;;;;;;4.57;4.18;;;5.40;99.90;;;;;;4973952;28;20157;-78
2021/04/11 12:44:48;;;;;;;5.82;5.22;;;5.40;99.90;;;;;;4973833;28;20192;-78
2021/04/11 12:47:24;;;;;;;5.28;4.05;;;5.30;99.90;;;;;;4973864;28;20245;-79
2021/04/11 12:49:56;;;;;;;4.65;4.25;;;5.30;99.90;;;;;;4974061;28;20180;-77
2021/04/11 12:52:51;;;;;;;5.45;4.95;;;5.40;99.90;;;;;;4974168;28;20172;-78
2021/04/11 12:55:24;;;;;;;5.47;4.85;;;5.40;99.90;;;;;;4973547;28;20190;-78
2021/04/11 12:58:22;;;;;;;4.90;4.50;;;5.20;99.90;;;;;;4974304;28;20210;-77
2021/04/11 13:00:50;;;;;;;4.70;4.30;;;5.30;99.90;;;;;;4971906;28;20227;-78
2021/04/11 13:03:27;;;;;;;5.43;5.03;;;5.40;99.90;;;;;;4973795;28;20170;-78
2021/04/11 13:06:15;;;;;;;6.65;5.95;;;5.30;99.90;;;;;;4973284;28;20283;-77
2021/04/11 13:09:18;;;;;;;11.20;10.10;;;5.40;99.90;;;;;;4973764;28;20173;-77
2021/04/11 13:11:51;;;;;;;10.00;9.00;;;5.30;99.90;;;;;;4973613;28;20176;-77
2021/04/11 13:14:29;;;;;;;13.15;11.13;;;5.10;99.90;;;;;;4973705;28;20583;-78
2021/04/11 13:17:03;;;;;;;10.82;8.93;;;5.10;99.90;;;;;;4973687;28;20200;-77
2021/04/11 13:19:35;;;;;;;11.45;9.07;;;5.20;99.90;;;;;;4973779;28;20282;-77
2021/04/11 13:22:16;;;;;;;12.13;9.23;;;5.30;99.90;;;;;;4976201;28;20172;-78
2021/04/11 13:24:53;;;;;;;10.15;9.02;;;5.40;99.90;;;;;;4976974;28;20167;-78
2021/04/11 13:27:29;;;;;;;14.20;10.38;;;5.60;99.90;;;;;;4975646;28;20780;-78
2021/04/11 13:30:29;;;;;;;12.48;9.35;;;5.70;99.90;;;;;;4976848;28;20211;-78
2021/04/11 13:33:17;;;;;;;11.85;9.25;;;5.70;99.90;;;;;;4972937;28;20200;-78
2021/04/11 13:36:05;;;;;;;14.95;9.70;;;5.80;99.90;;;;;;4976487;28;20287;-78
2021/04/11 13:38:36;;;;;;;9.73;8.65;;;5.80;99.90;;;;;;4976862;28;20167;-78
2021/04/11 13:41:19;;;;;;;8.82;7.20;;;5.60;99.90;;;;;;4976735;28;20200;-78
2021/04/11 13:43:51;;;;;;;12.30;9.52;;;5.70;99.90;;;;;;4976584;28;20156;-78
2021/04/11 13:46:47;;;;;;;8.43;7.60;;;5.80;99.90;;;;;;4976175;28;20207;-78
2021/04/11 13:49:30;;;;;;;9.32;8.15;;;5.80;99.90;;;;;;4976629;28;20208;-78
2021/04/11 13:52:41;;;;;;;9.85;8.18;;;5.90;99.90;;;;;;4975377;28;20184;-78
2021/04/11 13:55:12;;;;;;;8.25;6.30;;;6.00;99.90;;;;;;4973140;28;20563;-78
2021/04/11 13:57:49;;;;;;;5.78;5.25;;;5.90;99.90;;;;;;4976484;28;20183;-78
2021/04/11 14:00:26;;;;;;;5.65;5.03;;;5.70;99.90;;;;;;4976246;28;20199;-78